Weather at Campbellford Airport [CLOSED]

Public forecast

Using degrees Celsius for public forecast. Weather courtesy of forecast.io.

Closest aviation weather report (METAR) to Campbellford Airport

Closest report is CFB Trenton, 19.8 nm (36.6 km) SSE.

2024/05/21 16:00 (retrieved 39 minutes ago)

CYTR 211600Z 15004KT 110V210 15SM FEW045 FEW080 SCT140 25/18 A2988 RMK CU1AC2AC2 DENSITY ALT 1788FT SLP119

Closest aviation forecast (TAF) to Campbellford Airport

Closest forecast is CFB Trenton, 19.8 nm (36.6 km) SSE.

2024/05/21 12:42 (retrieved 4 hours ago)

TAF CYTR 211140Z 2112/2212 VRB03KT P6SM SCT070 SCT150 BKN250 TEMPO 2112/2116 6SM -SHRA BR BKN070 FM211600 18006KT P6SM FEW040 SCT070 BECMG 2120/2122 21008G18KT BECMG 2200/2202 VRB03KT RMK NXT FCST BY 211800Z